sensor_id;sensor_type;location;lat;lon;timestamp;P1;durP1;ratioP1;P2;durP2;ratioP2
21492;SDS011;10908;50.690;4.400;2024-01-07T00:00:03;15.68;;;8.75;;
21492;SDS011;10908;50.690;4.400;2024-01-07T00:02:29;16.38;;;8.45;;
21492;SDS011;10908;50.690;4.400;2024-01-07T00:04:56;14.18;;;8.55;;
21492;SDS011;10908;50.690;4.400;2024-01-07T00:07:23;16.30;;;8.77;;
21492;SDS011;10908;50.690;4.400;2024-01-07T00:09:48;17.35;;;8.50;;
21492;SDS011;10908;50.690;4.400;2024-01-07T00:12:14;15.57;;;9.05;;
21492;SDS011;10908;50.690;4.400;2024-01-07T00:14:40;17.23;;;8.57;;
21492;SDS011;10908;50.690;4.400;2024-01-07T00:17:06;15.93;;;8.40;;
21492;SDS011;10908;50.690;4.400;2024-01-07T00:19:32;17.38;;;8.80;;
21492;SDS011;10908;50.690;4.400;2024-01-07T00:22:00;17.08;;;9.02;;
21492;SDS011;10908;50.690;4.400;2024-01-07T00:24:26;15.68;;;8.73;;
21492;SDS011;10908;50.690;4.400;2024-01-07T00:26:53;16.70;;;9.15;;
21492;SDS011;10908;50.690;4.400;2024-01-07T00:29:19;16.27;;;9.23;;
21492;SDS011;10908;50.690;4.400;2024-01-07T00:31:45;17.27;;;8.98;;
21492;SDS011;10908;50.690;4.400;2024-01-07T00:34:11;15.43;;;8.70;;
21492;SDS011;10908;50.690;4.400;2024-01-07T00:36:36;13.98;;;8.80;;
21492;SDS011;10908;50.690;4.400;2024-01-07T00:39:02;13.98;;;8.38;;
21492;SDS011;10908;50.690;4.400;2024-01-07T00:41:28;14.02;;;8.65;;
21492;SDS011;10908;50.690;4.400;2024-01-07T00:43:55;16.73;;;8.95;;
21492;SDS011;10908;50.690;4.400;2024-01-07T00:46:21;16.27;;;8.80;;
21492;SDS011;10908;50.690;4.400;2024-01-07T00:48:46;17.65;;;8.70;;
21492;SDS011;10908;50.690;4.400;2024-01-07T00:51:12;14.55;;;8.80;;
21492;SDS011;10908;50.690;4.400;2024-01-07T00:53:37;14.38;;;8.77;;
21492;SDS011;10908;50.690;4.400;2024-01-07T00:56:03;16.35;;;9.15;;
21492;SDS011;10908;50.690;4.400;2024-01-07T00:58:29;16.45;;;8.48;;
21492;SDS011;10908;50.690;4.400;2024-01-07T01:00:55;16.10;;;9.05;;
21492;SDS011;10908;50.690;4.400;2024-01-07T01:03:21;16.38;;;10.10;;
21492;SDS011;10908;50.690;4.400;2024-01-07T01:05:46;17.92;;;9.40;;
21492;SDS011;10908;50.690;4.400;2024-01-07T01:08:12;19.67;;;11.23;;
21492;SDS011;10908;50.690;4.400;2024-01-07T01:10:38;16.98;;;10.52;;
21492;SDS011;10908;50.690;4.400;2024-01-07T01:13:03;20.67;;;11.55;;
21492;SDS011;10908;50.690;4.400;2024-01-07T01:15:29;18.90;;;10.93;;
21492;SDS011;10908;50.690;4.400;2024-01-07T01:17:54;19.67;;;10.95;;
21492;SDS011;10908;50.690;4.400;2024-01-07T01:20:20;20.92;;;11.23;;
21492;SDS011;10908;50.690;4.400;2024-01-07T01:22:46;19.38;;;10.68;;
21492;SDS011;10908;50.690;4.400;2024-01-07T01:25:11;20.83;;;11.30;;
21492;SDS011;10908;50.690;4.400;2024-01-07T01:27:37;18.45;;;11.27;;
21492;SDS011;10908;50.690;4.400;2024-01-07T01:30:03;23.77;;;12.15;;
21492;SDS011;10908;50.690;4.400;2024-01-07T01:32:29;20.55;;;11.45;;
21492;SDS011;10908;50.690;4.400;2024-01-07T01:34:54;19.52;;;11.45;;
21492;SDS011;10908;50.690;4.400;2024-01-07T01:37:20;17.92;;;11.02;;
21492;SDS011;10908;50.690;4.400;2024-01-07T01:39:46;20.80;;;10.95;;
21492;SDS011;10908;50.690;4.400;2024-01-07T01:42:12;17.02;;;10.05;;
21492;SDS011;10908;50.690;4.400;2024-01-07T01:44:38;20.42;;;10.93;;
21492;SDS011;10908;50.690;4.400;2024-01-07T01:47:04;19.25;;;10.52;;
21492;SDS011;10908;50.690;4.400;2024-01-07T01:49:31;17.30;;;10.57;;
21492;SDS011;10908;50.690;4.400;2024-01-07T01:51:57;19.17;;;10.57;;
21492;SDS011;10908;50.690;4.400;2024-01-07T01:54:23;19.70;;;10.52;;
21492;SDS011;10908;50.690;4.400;2024-01-07T01:56:49;17.67;;;10.52;;
21492;SDS011;10908;50.690;4.400;2024-01-07T01:59:15;18.50;;;10.40;;
21492;SDS011;10908;50.690;4.400;2024-01-07T02:01:42;17.98;;;10.25;;
21492;SDS011;10908;50.690;4.400;2024-01-07T02:04:09;19.35;;;10.32;;
21492;SDS011;10908;50.690;4.400;2024-01-07T02:06:35;19.38;;;11.27;;
21492;SDS011;10908;50.690;4.400;2024-01-07T02:09:01;16.95;;;9.88;;
21492;SDS011;10908;50.690;4.400;2024-01-07T02:11:27;18.42;;;10.68;;
21492;SDS011;10908;50.690;4.400;2024-01-07T02:13:53;18.30;;;10.75;;
21492;SDS011;10908;50.690;4.400;2024-01-07T02:16:18;18.00;;;10.65;;
21492;SDS011;10908;50.690;4.400;2024-01-07T02:18:45;17.95;;;10.63;;
21492;SDS011;10908;50.690;4.400;2024-01-07T02:21:11;17.80;;;10.25;;
21492;SDS011;10908;50.690;4.400;2024-01-07T02:23:38;18.80;;;11.00;;
21492;SDS011;10908;50.690;4.400;2024-01-07T02:26:04;20.55;;;11.82;;
21492;SDS011;10908;50.690;4.400;2024-01-07T02:28:30;20.30;;;11.90;;
21492;SDS011;10908;50.690;4.400;2024-01-07T02:30:56;24.33;;;12.73;;
21492;SDS011;10908;50.690;4.400;2024-01-07T02:33:22;22.70;;;12.25;;
21492;SDS011;10908;50.690;4.400;2024-01-07T02:35:48;22.02;;;12.77;;
21492;SDS011;10908;50.690;4.400;2024-01-07T02:38:13;20.67;;;12.02;;
21492;SDS011;10908;50.690;4.400;2024-01-07T02:40:39;22.00;;;12.93;;
21492;SDS011;10908;50.690;4.400;2024-01-07T02:43:04;20.60;;;11.50;;
21492;SDS011;10908;50.690;4.400;2024-01-07T02:45:30;21.23;;;11.65;;
21492;SDS011;10908;50.690;4.400;2024-01-07T02:47:56;23.25;;;12.18;;
21492;SDS011;10908;50.690;4.400;2024-01-07T02:50:21;21.67;;;11.57;;
21492;SDS011;10908;50.690;4.400;2024-01-07T02:52:47;21.08;;;11.05;;
21492;SDS011;10908;50.690;4.400;2024-01-07T02:55:13;21.05;;;11.32;;
21492;SDS011;10908;50.690;4.400;2024-01-07T02:57:39;19.63;;;10.50;;
21492;SDS011;10908;50.690;4.400;2024-01-07T03:00:05;21.05;;;9.75;;
21492;SDS011;10908;50.690;4.400;2024-01-07T03:02:31;18.73;;;9.27;;
21492;SDS011;10908;50.690;4.400;2024-01-07T03:04:57;17.65;;;8.90;;
21492;SDS011;10908;50.690;4.400;2024-01-07T03:07:23;15.32;;;8.32;;
21492;SDS011;10908;50.690;4.400;2024-01-07T03:09:48;15.50;;;7.93;;
21492;SDS011;10908;50.690;4.400;2024-01-07T03:12:15;16.77;;;8.68;;
21492;SDS011;10908;50.690;4.400;2024-01-07T03:14:41;15.13;;;8.48;;
21492;SDS011;10908;50.690;4.400;2024-01-07T03:17:07;16.55;;;9.25;;
21492;SDS011;10908;50.690;4.400;2024-01-07T03:19:32;16.63;;;9.55;;
21492;SDS011;10908;50.690;4.400;2024-01-07T03:21:58;16.00;;;9.52;;
21492;SDS011;10908;50.690;4.400;2024-01-07T03:24:24;19.42;;;10.48;;
21492;SDS011;10908;50.690;4.400;2024-01-07T03:26:49;19.58;;;10.43;;
21492;SDS011;10908;50.690;4.400;2024-01-07T03:29:15;16.33;;;8.95;;
21492;SDS011;10908;50.690;4.400;2024-01-07T03:31:41;16.83;;;9.70;;
21492;SDS011;10908;50.690;4.400;2024-01-07T03:34:06;18.25;;;10.18;;
21492;SDS011;10908;50.690;4.400;2024-01-07T03:36:32;21.30;;;11.48;;
21492;SDS011;10908;50.690;4.400;2024-01-07T03:38:58;20.77;;;11.32;;
21492;SDS011;10908;50.690;4.400;2024-01-07T03:41:23;20.55;;;11.25;;
21492;SDS011;10908;50.690;4.400;2024-01-07T03:43:49;22.65;;;12.23;;
21492;SDS011;10908;50.690;4.400;2024-01-07T03:46:16;22.70;;;12.18;;
21492;SDS011;10908;50.690;4.400;2024-01-07T03:48:42;24.00;;;13.13;;
21492;SDS011;10908;50.690;4.400;2024-01-07T03:51:08;23.25;;;12.68;;
21492;SDS011;10908;50.690;4.400;2024-01-07T03:53:34;21.05;;;11.80;;
21492;SDS011;10908;50.690;4.400;2024-01-07T03:55:59;24.13;;;13.50;;
21492;SDS011;10908;50.690;4.400;2024-01-07T03:58:25;23.83;;;12.82;;
21492;SDS011;10908;50.690;4.400;2024-01-07T04:00:50;26.23;;;13.95;;
21492;SDS011;10908;50.690;4.400;2024-01-07T04:03:16;22.33;;;12.63;;
21492;SDS011;10908;50.690;4.400;2024-01-07T04:05:42;25.33;;;13.30;;
21492;SDS011;10908;50.690;4.400;2024-01-07T04:08:10;23.63;;;13.13;;
21492;SDS011;10908;50.690;4.400;2024-01-07T04:10:36;25.80;;;13.30;;
21492;SDS011;10908;50.690;4.400;2024-01-07T04:13:02;26.30;;;14.18;;
21492;SDS011;10908;50.690;4.400;2024-01-07T04:15:29;28.23;;;14.05;;
21492;SDS011;10908;50.690;4.400;2024-01-07T04:17:54;27.85;;;15.23;;
21492;SDS011;10908;50.690;4.400;2024-01-07T04:20:20;25.83;;;14.13;;
21492;SDS011;10908;50.690;4.400;2024-01-07T04:22:46;26.98;;;13.70;;
21492;SDS011;10908;50.690;4.400;2024-01-07T04:25:12;31.65;;;16.95;;
21492;SDS011;10908;50.690;4.400;2024-01-07T04:27:38;31.77;;;15.90;;
21492;SDS011;10908;50.690;4.400;2024-01-07T04:30:03;31.05;;;16.33;;
21492;SDS011;10908;50.690;4.400;2024-01-07T04:32:30;34.05;;;16.52;;
21492;SDS011;10908;50.690;4.400;2024-01-07T04:34:56;28.95;;;15.73;;
21492;SDS011;10908;50.690;4.400;2024-01-07T04:37:22;30.33;;;15.18;;
21492;SDS011;10908;50.690;4.400;2024-01-07T04:39:48;29.83;;;15.57;;
21492;SDS011;10908;50.690;4.400;2024-01-07T04:42:14;33.60;;;16.83;;
21492;SDS011;10908;50.690;4.400;2024-01-07T04:44:40;32.42;;;17.17;;
21492;SDS011;10908;50.690;4.400;2024-01-07T04:47:22;31.60;;;17.38;;
21492;SDS011;10908;50.690;4.400;2024-01-07T04:49:50;35.88;;;17.20;;
21492;SDS011;10908;50.690;4.400;2024-01-07T04:52:15;34.00;;;17.25;;
21492;SDS011;10908;50.690;4.400;2024-01-07T04:54:41;36.25;;;17.88;;
21492;SDS011;10908;50.690;4.400;2024-01-07T04:57:06;37.80;;;18.70;;
21492;SDS011;10908;50.690;4.400;2024-01-07T04:59:32;37.50;;;19.85;;
21492;SDS011;10908;50.690;4.400;2024-01-07T05:01:58;36.72;;;18.77;;
21492;SDS011;10908;50.690;4.400;2024-01-07T05:04:23;41.85;;;20.30;;
21492;SDS011;10908;50.690;4.400;2024-01-07T05:06:49;42.90;;;20.08;;
21492;SDS011;10908;50.690;4.400;2024-01-07T05:09:15;42.17;;;19.67;;
21492;SDS011;10908;50.690;4.400;2024-01-07T05:11:40;38.90;;;19.30;;
21492;SDS011;10908;50.690;4.400;2024-01-07T05:14:06;40.95;;;20.50;;
21492;SDS011;10908;50.690;4.400;2024-01-07T05:16:32;42.75;;;19.75;;
21492;SDS011;10908;50.690;4.400;2024-01-07T05:18:58;37.83;;;19.88;;
21492;SDS011;10908;50.690;4.400;2024-01-07T05:21:23;34.65;;;17.77;;
21492;SDS011;10908;50.690;4.400;2024-01-07T05:23:49;35.30;;;17.27;;
21492;SDS011;10908;50.690;4.400;2024-01-07T05:26:14;38.33;;;18.48;;
21492;SDS011;10908;50.690;4.400;2024-01-07T05:28:40;35.80;;;17.98;;
21492;SDS011;10908;50.690;4.400;2024-01-07T05:31:13;39.15;;;18.23;;
21492;SDS011;10908;50.690;4.400;2024-01-07T05:33:39;35.47;;;17.80;;
21492;SDS011;10908;50.690;4.400;2024-01-07T05:36:05;34.10;;;16.88;;
21492;SDS011;10908;50.690;4.400;2024-01-07T05:38:31;35.35;;;17.50;;
21492;SDS011;10908;50.690;4.400;2024-01-07T05:40:56;36.63;;;17.38;;
21492;SDS011;10908;50.690;4.400;2024-01-07T05:43:22;35.30;;;17.10;;
21492;SDS011;10908;50.690;4.400;2024-01-07T05:45:48;36.97;;;17.58;;
21492;SDS011;10908;50.690;4.400;2024-01-07T05:48:13;34.13;;;16.58;;
21492;SDS011;10908;50.690;4.400;2024-01-07T05:50:39;34.72;;;15.95;;
21492;SDS011;10908;50.690;4.400;2024-01-07T05:53:04;38.85;;;16.55;;
21492;SDS011;10908;50.690;4.400;2024-01-07T05:55:30;36.90;;;16.83;;
21492;SDS011;10908;50.690;4.400;2024-01-07T05:57:56;36.88;;;18.35;;
21492;SDS011;10908;50.690;4.400;2024-01-07T06:00:22;36.78;;;17.25;;
21492;SDS011;10908;50.690;4.400;2024-01-07T06:02:48;33.50;;;16.70;;
21492;SDS011;10908;50.690;4.400;2024-01-07T06:05:14;39.55;;;17.90;;
21492;SDS011;10908;50.690;4.400;2024-01-07T06:07:39;34.35;;;17.05;;
21492;SDS011;10908;50.690;4.400;2024-01-07T06:10:05;37.50;;;17.13;;
21492;SDS011;10908;50.690;4.400;2024-01-07T06:12:31;38.00;;;18.00;;
21492;SDS011;10908;50.690;4.400;2024-01-07T06:14:57;34.20;;;16.83;;
21492;SDS011;10908;50.690;4.400;2024-01-07T06:17:22;40.88;;;18.65;;
21492;SDS011;10908;50.690;4.400;2024-01-07T06:19:48;35.05;;;17.23;;
21492;SDS011;10908;50.690;4.400;2024-01-07T06:22:14;36.92;;;17.52;;
21492;SDS011;10908;50.690;4.400;2024-01-07T06:24:40;35.67;;;17.38;;
21492;SDS011;10908;50.690;4.400;2024-01-07T06:27:05;37.13;;;18.75;;
21492;SDS011;10908;50.690;4.400;2024-01-07T06:29:31;40.42;;;17.98;;
21492;SDS011;10908;50.690;4.400;2024-01-07T06:31:57;37.92;;;18.70;;
21492;SDS011;10908;50.690;4.400;2024-01-07T06:34:22;37.83;;;18.27;;
21492;SDS011;10908;50.690;4.400;2024-01-07T06:36:48;41.15;;;18.42;;
21492;SDS011;10908;50.690;4.400;2024-01-07T06:39:14;39.28;;;18.23;;
21492;SDS011;10908;50.690;4.400;2024-01-07T06:41:39;41.17;;;18.45;;
21492;SDS011;10908;50.690;4.400;2024-01-07T06:44:05;37.33;;;18.38;;
21492;SDS011;10908;50.690;4.400;2024-01-07T06:46:30;40.33;;;17.85;;
21492;SDS011;10908;50.690;4.400;2024-01-07T06:48:56;39.83;;;18.75;;
21492;SDS011;10908;50.690;4.400;2024-01-07T06:51:22;40.38;;;19.17;;
21492;SDS011;10908;50.690;4.400;2024-01-07T06:53:47;41.53;;;19.05;;
21492;SDS011;10908;50.690;4.400;2024-01-07T06:56:15;40.20;;;19.27;;
21492;SDS011;10908;50.690;4.400;2024-01-07T06:58:40;40.30;;;19.17;;
21492;SDS011;10908;50.690;4.400;2024-01-07T07:01:06;44.25;;;20.95;;
21492;SDS011;10908;50.690;4.400;2024-01-07T07:03:32;41.47;;;18.73;;
21492;SDS011;10908;50.690;4.400;2024-01-07T07:05:58;42.60;;;18.92;;
21492;SDS011;10908;50.690;4.400;2024-01-07T07:08:23;38.50;;;18.80;;
21492;SDS011;10908;50.690;4.400;2024-01-07T07:10:49;40.67;;;19.27;;
21492;SDS011;10908;50.690;4.400;2024-01-07T07:13:15;43.08;;;19.58;;
21492;SDS011;10908;50.690;4.400;2024-01-07T07:15:40;43.70;;;19.83;;
21492;SDS011;10908;50.690;4.400;2024-01-07T07:18:06;40.45;;;18.75;;
21492;SDS011;10908;50.690;4.400;2024-01-07T07:20:32;45.53;;;20.10;;
21492;SDS011;10908;50.690;4.400;2024-01-07T07:22:58;44.67;;;20.02;;
21492;SDS011;10908;50.690;4.400;2024-01-07T07:25:23;41.35;;;19.13;;
21492;SDS011;10908;50.690;4.400;2024-01-07T07:27:49;43.40;;;19.80;;
21492;SDS011;10908;50.690;4.400;2024-01-07T07:30:15;42.60;;;19.08;;
21492;SDS011;10908;50.690;4.400;2024-01-07T07:32:41;43.33;;;19.33;;
21492;SDS011;10908;50.690;4.400;2024-01-07T07:35:07;43.53;;;19.00;;
21492;SDS011;10908;50.690;4.400;2024-01-07T07:37:33;41.55;;;17.98;;
21492;SDS011;10908;50.690;4.400;2024-01-07T07:39:58;43.10;;;18.88;;
21492;SDS011;10908;50.690;4.400;2024-01-07T07:42:24;45.08;;;18.65;;
21492;SDS011;10908;50.690;4.400;2024-01-07T07:44:50;41.92;;;18.90;;
21492;SDS011;10908;50.690;4.400;2024-01-07T07:47:15;46.25;;;19.80;;
21492;SDS011;10908;50.690;4.400;2024-01-07T07:49:41;42.60;;;18.77;;
21492;SDS011;10908;50.690;4.400;2024-01-07T07:52:09;42.38;;;18.67;;
21492;SDS011;10908;50.690;4.400;2024-01-07T07:54:38;45.55;;;18.58;;
21492;SDS011;10908;50.690;4.400;2024-01-07T07:57:04;45.00;;;19.45;;
21492;SDS011;10908;50.690;4.400;2024-01-07T07:59:29;42.67;;;19.52;;
21492;SDS011;10908;50.690;4.400;2024-01-07T08:01:55;47.58;;;20.13;;
21492;SDS011;10908;50.690;4.400;2024-01-07T08:04:21;48.15;;;18.65;;
21492;SDS011;10908;50.690;4.400;2024-01-07T08:06:46;56.53;;;21.13;;
21492;SDS011;10908;50.690;4.400;2024-01-07T08:09:12;48.90;;;19.98;;
21492;SDS011;10908;50.690;4.400;2024-01-07T08:11:38;49.95;;;19.73;;
21492;SDS011;10908;50.690;4.400;2024-01-07T08:14:04;45.88;;;19.80;;
21492;SDS011;10908;50.690;4.400;2024-01-07T08:16:31;57.20;;;21.63;;
21492;SDS011;10908;50.690;4.400;2024-01-07T08:18:56;56.15;;;21.70;;
21492;SDS011;10908;50.690;4.400;2024-01-07T08:21:22;53.83;;;21.70;;
21492;SDS011;10908;50.690;4.400;2024-01-07T08:23:48;57.83;;;21.67;;
21492;SDS011;10908;50.690;4.400;2024-01-07T08:26:20;50.67;;;20.48;;
21492;SDS011;10908;50.690;4.400;2024-01-07T08:28:46;50.25;;;20.73;;
21492;SDS011;10908;50.690;4.400;2024-01-07T08:31:12;58.38;;;22.20;;
21492;SDS011;10908;50.690;4.400;2024-01-07T08:33:38;51.45;;;20.73;;
21492;SDS011;10908;50.690;4.400;2024-01-07T08:36:03;50.47;;;21.45;;
21492;SDS011;10908;50.690;4.400;2024-01-07T08:38:30;52.05;;;21.17;;
21492;SDS011;10908;50.690;4.400;2024-01-07T08:40:56;51.28;;;20.83;;
21492;SDS011;10908;50.690;4.400;2024-01-07T08:43:21;53.85;;;22.15;;
21492;SDS011;10908;50.690;4.400;2024-01-07T08:45:47;53.28;;;21.88;;
21492;SDS011;10908;50.690;4.400;2024-01-07T08:48:13;52.63;;;20.77;;
21492;SDS011;10908;50.690;4.400;2024-01-07T08:50:38;47.75;;;20.05;;
21492;SDS011;10908;50.690;4.400;2024-01-07T08:53:04;54.38;;;23.08;;
21492;SDS011;10908;50.690;4.400;2024-01-07T08:55:30;58.10;;;23.63;;
21492;SDS011;10908;50.690;4.400;2024-01-07T08:57:56;54.78;;;22.10;;
21492;SDS011;10908;50.690;4.400;2024-01-07T09:00:22;49.92;;;20.85;;
21492;SDS011;10908;50.690;4.400;2024-01-07T09:02:51;51.40;;;20.40;;
21492;SDS011;10908;50.690;4.400;2024-01-07T09:05:17;44.70;;;20.40;;
21492;SDS011;10908;50.690;4.400;2024-01-07T09:07:43;46.35;;;21.20;;
21492;SDS011;10908;50.690;4.400;2024-01-07T09:10:08;46.30;;;19.15;;
21492;SDS011;10908;50.690;4.400;2024-01-07T09:12:38;46.08;;;20.73;;
21492;SDS011;10908;50.690;4.400;2024-01-07T09:15:04;51.83;;;21.73;;
21492;SDS011;10908;50.690;4.400;2024-01-07T09:17:37;50.65;;;22.17;;
21492;SDS011;10908;50.690;4.400;2024-01-07T09:20:08;54.50;;;22.60;;
21492;SDS011;10908;50.690;4.400;2024-01-07T09:22:35;48.40;;;22.85;;
21492;SDS011;10908;50.690;4.400;2024-01-07T09:25:02;53.05;;;22.42;;
21492;SDS011;10908;50.690;4.400;2024-01-07T09:27:31;47.88;;;21.35;;
21492;SDS011;10908;50.690;4.400;2024-01-07T09:29:57;51.78;;;23.10;;
21492;SDS011;10908;50.690;4.400;2024-01-07T09:32:23;47.53;;;20.30;;
21492;SDS011;10908;50.690;4.400;2024-01-07T09:34:48;42.92;;;19.83;;
21492;SDS011;10908;50.690;4.400;2024-01-07T09:37:14;45.40;;;19.30;;
21492;SDS011;10908;50.690;4.400;2024-01-07T09:39:40;43.08;;;19.08;;
21492;SDS011;10908;50.690;4.400;2024-01-07T09:42:13;41.38;;;20.30;;
21492;SDS011;10908;50.690;4.400;2024-01-07T09:44:40;40.63;;;19.02;;
21492;SDS011;10908;50.690;4.400;2024-01-07T09:47:08;41.83;;;19.52;;
21492;SDS011;10908;50.690;4.400;2024-01-07T09:49:36;38.15;;;17.67;;
21492;SDS011;10908;50.690;4.400;2024-01-07T09:52:02;36.15;;;17.00;;
21492;SDS011;10908;50.690;4.400;2024-01-07T09:54:30;37.47;;;17.75;;
21492;SDS011;10908;50.690;4.400;2024-01-07T09:57:03;37.55;;;18.45;;
21492;SDS011;10908;50.690;4.400;2024-01-07T09:59:31;39.63;;;18.42;;
21492;SDS011;10908;50.690;4.400;2024-01-07T10:01:58;39.10;;;18.58;;
21492;SDS011;10908;50.690;4.400;2024-01-07T10:04:24;35.78;;;17.23;;
21492;SDS011;10908;50.690;4.400;2024-01-07T10:06:50;35.10;;;17.25;;
21492;SDS011;10908;50.690;4.400;2024-01-07T10:09:19;34.95;;;16.25;;
21492;SDS011;10908;50.690;4.400;2024-01-07T10:11:46;34.40;;;16.83;;
21492;SDS011;10908;50.690;4.400;2024-01-07T10:14:12;36.20;;;16.20;;
21492;SDS011;10908;50.690;4.400;2024-01-07T10:16:38;30.77;;;14.77;;
21492;SDS011;10908;50.690;4.400;2024-01-07T10:19:04;27.20;;;14.30;;
21492;SDS011;10908;50.690;4.400;2024-01-07T10:21:30;27.85;;;14.50;;
21492;SDS011;10908;50.690;4.400;2024-01-07T10:24:09;27.33;;;14.48;;
21492;SDS011;10908;50.690;4.400;2024-01-07T10:26:39;27.02;;;14.25;;
21492;SDS011;10908;50.690;4.400;2024-01-07T10:29:06;27.52;;;14.65;;
21492;SDS011;10908;50.690;4.400;2024-01-07T10:31:35;29.73;;;15.13;;
21492;SDS011;10908;50.690;4.400;2024-01-07T10:34:07;30.92;;;15.93;;
21492;SDS011;10908;50.690;4.400;2024-01-07T10:36:34;30.95;;;14.80;;
21492;SDS011;10908;50.690;4.400;2024-01-07T10:38:59;27.90;;;14.38;;
21492;SDS011;10908;50.690;4.400;2024-01-07T10:41:25;27.23;;;15.00;;
21492;SDS011;10908;50.690;4.400;2024-01-07T10:43:52;27.08;;;14.55;;
21492;SDS011;10908;50.690;4.400;2024-01-07T10:46:19;29.17;;;14.98;;
21492;SDS011;10908;50.690;4.400;2024-01-07T10:48:51;27.85;;;14.65;;
21492;SDS011;10908;50.690;4.400;2024-01-07T10:51:21;28.50;;;14.63;;
21492;SDS011;10908;50.690;4.400;2024-01-07T10:53:51;31.08;;;14.93;;
21492;SDS011;10908;50.690;4.400;2024-01-07T10:56:24;30.05;;;15.18;;
21492;SDS011;10908;50.690;4.400;2024-01-07T10:58:55;28.65;;;15.45;;
21492;SDS011;10908;50.690;4.400;2024-01-07T11:01:22;30.48;;;15.48;;
21492;SDS011;10908;50.690;4.400;2024-01-07T11:11:38;30.08;;;16.45;;
21492;SDS011;10908;50.690;4.400;2024-01-07T11:17:07;31.48;;;16.00;;
21492;SDS011;10908;50.690;4.400;2024-01-07T11:19:35;33.15;;;18.75;;
21492;SDS011;10908;50.690;4.400;2024-01-07T11:24:55;32.22;;;17.33;;
21492;SDS011;10908;50.690;4.400;2024-01-07T11:27:22;35.25;;;18.15;;
21492;SDS011;10908;50.690;4.400;2024-01-07T11:29:54;34.38;;;17.90;;
21492;SDS011;10908;50.690;4.400;2024-01-07T11:32:24;32.17;;;16.95;;
21492;SDS011;10908;50.690;4.400;2024-01-07T11:34:58;34.47;;;16.77;;
21492;SDS011;10908;50.690;4.400;2024-01-07T11:37:24;32.28;;;16.65;;
21492;SDS011;10908;50.690;4.400;2024-01-07T11:39:51;30.67;;;15.88;;
21492;SDS011;10908;50.690;4.400;2024-01-07T11:42:20;35.20;;;17.15;;
21492;SDS011;10908;50.690;4.400;2024-01-07T11:44:51;33.67;;;16.35;;
21492;SDS011;10908;50.690;4.400;2024-01-07T11:47:18;29.92;;;14.65;;
21492;SDS011;10908;50.690;4.400;2024-01-07T11:49:45;31.90;;;14.68;;
21492;SDS011;10908;50.690;4.400;2024-01-07T11:52:11;30.02;;;14.90;;
21492;SDS011;10908;50.690;4.400;2024-01-07T11:54:38;31.85;;;15.57;;
21492;SDS011;10908;50.690;4.400;2024-01-07T11:57:04;33.25;;;15.50;;
21492;SDS011;10908;50.690;4.400;2024-01-07T11:59:30;30.58;;;15.30;;
21492;SDS011;10908;50.690;4.400;2024-01-07T12:01:56;30.30;;;14.75;;
21492;SDS011;10908;50.690;4.400;2024-01-07T12:04:21;31.13;;;15.20;;
21492;SDS011;10908;50.690;4.400;2024-01-07T12:06:50;32.67;;;15.77;;
21492;SDS011;10908;50.690;4.400;2024-01-07T12:09:16;30.85;;;15.93;;
21492;SDS011;10908;50.690;4.400;2024-01-07T12:11:42;32.03;;;14.73;;
21492;SDS011;10908;50.690;4.400;2024-01-07T12:14:09;29.50;;;15.63;;
21492;SDS011;10908;50.690;4.400;2024-01-07T12:16:36;32.60;;;16.05;;
21492;SDS011;10908;50.690;4.400;2024-01-07T12:19:02;32.45;;;15.52;;
21492;SDS011;10908;50.690;4.400;2024-01-07T12:21:28;34.40;;;16.38;;
21492;SDS011;10908;50.690;4.400;2024-01-07T12:23:54;34.25;;;16.08;;
21492;SDS011;10908;50.690;4.400;2024-01-07T12:26:25;33.42;;;16.15;;
21492;SDS011;10908;50.690;4.400;2024-01-07T12:28:58;37.60;;;15.88;;
21492;SDS011;10908;50.690;4.400;2024-01-07T12:31:28;34.47;;;17.25;;
21492;SDS011;10908;50.690;4.400;2024-01-07T12:33:56;33.42;;;16.80;;
21492;SDS011;10908;50.690;4.400;2024-01-07T12:36:23;36.83;;;17.20;;
21492;SDS011;10908;50.690;4.400;2024-01-07T12:38:49;33.33;;;17.35;;
21492;SDS011;10908;50.690;4.400;2024-01-07T12:41:19;34.10;;;16.35;;
21492;SDS011;10908;50.690;4.400;2024-01-07T12:43:45;36.42;;;16.25;;
21492;SDS011;10908;50.690;4.400;2024-01-07T12:46:10;33.92;;;15.90;;
21492;SDS011;10908;50.690;4.400;2024-01-07T12:48:36;34.78;;;15.60;;
21492;SDS011;10908;50.690;4.400;2024-01-07T12:51:02;37.13;;;15.63;;
21492;SDS011;10908;50.690;4.400;2024-01-07T12:53:27;36.25;;;17.17;;
21492;SDS011;10908;50.690;4.400;2024-01-07T12:55:53;37.33;;;16.02;;
21492;SDS011;10908;50.690;4.400;2024-01-07T12:58:19;34.05;;;16.65;;
21492;SDS011;10908;50.690;4.400;2024-01-07T13:00:46;35.80;;;16.63;;
21492;SDS011;10908;50.690;4.400;2024-01-07T13:03:11;39.80;;;17.55;;
21492;SDS011;10908;50.690;4.400;2024-01-07T13:05:42;35.20;;;18.20;;
21492;SDS011;10908;50.690;4.400;2024-01-07T13:08:13;35.97;;;17.60;;
21492;SDS011;10908;50.690;4.400;2024-01-07T13:10:39;39.03;;;18.63;;
21492;SDS011;10908;50.690;4.400;2024-01-07T13:13:05;39.60;;;17.88;;
21492;SDS011;10908;50.690;4.400;2024-01-07T13:15:31;36.03;;;16.58;;
21492;SDS011;10908;50.690;4.400;2024-01-07T13:17:57;34.25;;;16.45;;
21492;SDS011;10908;50.690;4.400;2024-01-07T13:20:22;33.42;;;15.77;;
21492;SDS011;10908;50.690;4.400;2024-01-07T13:22:48;29.58;;;14.85;;
21492;SDS011;10908;50.690;4.400;2024-01-07T13:25:15;33.92;;;16.67;;
21492;SDS011;10908;50.690;4.400;2024-01-07T13:27:40;33.85;;;15.68;;
21492;SDS011;10908;50.690;4.400;2024-01-07T13:30:07;33.05;;;15.95;;
21492;SDS011;10908;50.690;4.400;2024-01-07T13:32:34;33.20;;;15.85;;
21492;SDS011;10908;50.690;4.400;2024-01-07T13:35:01;30.48;;;15.82;;
21492;SDS011;10908;50.690;4.400;2024-01-07T13:37:35;29.88;;;15.18;;
21492;SDS011;10908;50.690;4.400;2024-01-07T13:40:01;31.25;;;14.77;;
21492;SDS011;10908;50.690;4.400;2024-01-07T13:42:28;28.23;;;14.55;;
21492;SDS011;10908;50.690;4.400;2024-01-07T13:44:54;29.73;;;14.70;;
21492;SDS011;10908;50.690;4.400;2024-01-07T13:47:20;28.50;;;14.82;;
21492;SDS011;10908;50.690;4.400;2024-01-07T13:49:46;30.33;;;14.55;;
21492;SDS011;10908;50.690;4.400;2024-01-07T13:52:12;27.08;;;13.90;;
21492;SDS011;10908;50.690;4.400;2024-01-07T13:54:38;29.30;;;15.02;;
21492;SDS011;10908;50.690;4.400;2024-01-07T13:57:04;28.00;;;14.60;;
21492;SDS011;10908;50.690;4.400;2024-01-07T13:59:29;30.73;;;14.27;;
21492;SDS011;10908;50.690;4.400;2024-01-07T14:01:55;29.52;;;14.63;;
21492;SDS011;10908;50.690;4.400;2024-01-07T14:04:23;26.45;;;13.75;;
21492;SDS011;10908;50.690;4.400;2024-01-07T14:06:53;27.63;;;14.73;;
21492;SDS011;10908;50.690;4.400;2024-01-07T14:09:22;29.92;;;14.75;;
21492;SDS011;10908;50.690;4.400;2024-01-07T14:11:49;26.63;;;13.55;;
21492;SDS011;10908;50.690;4.400;2024-01-07T14:14:15;27.38;;;13.82;;
21492;SDS011;10908;50.690;4.400;2024-01-07T14:16:41;27.52;;;15.23;;
21492;SDS011;10908;50.690;4.400;2024-01-07T14:19:07;30.80;;;14.77;;
21492;SDS011;10908;50.690;4.400;2024-01-07T14:21:32;28.60;;;14.35;;
21492;SDS011;10908;50.690;4.400;2024-01-07T14:23:58;28.92;;;14.63;;
21492;SDS011;10908;50.690;4.400;2024-01-07T14:26:23;28.77;;;14.77;;
21492;SDS011;10908;50.690;4.400;2024-01-07T14:28:49;28.52;;;15.00;;
21492;SDS011;10908;50.690;4.400;2024-01-07T14:31:16;22.48;;;13.65;;